TRA2602 LEIB-EHAM
Flight info
| Callsign | TRA2602 |
|---|---|
| Flight time | 2h 19m |
| Altitude | 38000 |
| Route | EPAMA N856 EBROX Z26 LATRO DCT OLOXO DCT OKABI DCT TOU DCT ADABI DCT BOKNO UN858 VANAD UN874 BAMES UT191 PODEM DCT BAZOS DCT LUMIL DCT BELOB UY873 DENUT |
| Aircraft | A21N/M-SBDE2E3FGHIJ1J5M1P2RWXYZ/LB1D1G1 |
Departure
| Time | 2026-05-06 12:31 |
|---|---|
| Airport | Ibiza Airport (LEIB) |
Arrival
| Time | 2026-05-06 14:51 |
|---|---|
| Airport | Amsterdam Airport Schiphol (EHAM) |
| Time | Latitude | Longitude | Altitude | Speed | Heading |
|---|---|---|---|---|---|
| 2026-05-06 12:07 | 38.87582 | 1.37305 | 14 ft | 0 kts | 332° |
| 2026-05-06 12:26 | 38.87585 | 1.37302 | 14 ft | 0 kts | 332° |
| 2026-05-06 12:27 | 38.87586 | 1.37301 | 14 ft | 1 kts | 327° |
| 2026-05-06 12:27 | 38.87600 | 1.37282 | 14 ft | 5 kts | 294° |
| 2026-05-06 12:27 | 38.87607 | 1.37222 | 14 ft | 9 kts | 258° |
| 2026-05-06 12:27 | 38.87575 | 1.37134 | 14 ft | 13 kts | 242° |
| 2026-05-06 12:28 | 38.87529 | 1.37020 | 14 ft | 16 kts | 243° |
| 2026-05-06 12:28 | 38.87470 | 1.36883 | 14 ft | 19 kts | 241° |
| 2026-05-06 12:28 | 38.87393 | 1.36809 | 14 ft | 15 kts | 163° |
| 2026-05-06 12:28 | 38.87312 | 1.36849 | 14 ft | 12 kts | 175° |
| 2026-05-06 12:29 | 38.87249 | 1.36775 | 14 ft | 15 kts | 241° |
| 2026-05-06 12:29 | 38.87198 | 1.36646 | 14 ft | 18 kts | 244° |
| 2026-05-06 12:29 | 38.87135 | 1.36493 | 14 ft | 21 kts | 240° |
| 2026-05-06 12:29 | 38.87058 | 1.36312 | 13 ft | 25 kts | 242° |
| 2026-05-06 12:30 | 38.87001 | 1.36218 | 13 ft | 7 kts | 184° |
| 2026-05-06 12:30 | 38.86942 | 1.36241 | 12 ft | 11 kts | 153° |
| 2026-05-06 12:30 | 38.86881 | 1.36297 | 11 ft | 11 kts | 121° |
| 2026-05-06 12:30 | 38.86886 | 1.36351 | 10 ft | 0 kts | 60° |
| 2026-05-06 12:31 | 38.86948 | 1.36492 | 12 ft | 58 kts | 63° |
| 2026-05-06 12:31 | 38.87250 | 1.37232 | 17 ft | 132 kts | 61° |
| 2026-05-06 12:31 | 38.87783 | 1.38531 | 333 ft | 180 kts | 65° |
| 2026-05-06 12:31 | 38.88289 | 1.40057 | 1189 ft | 187 kts | 77° |
| 2026-05-06 12:32 | 38.88446 | 1.41707 | 2082 ft | 189 kts | 90° |
| 2026-05-06 12:32 | 38.88699 | 1.43359 | 2875 ft | 195 kts | 73° |
| 2026-05-06 12:32 | 38.89285 | 1.45012 | 3503 ft | 210 kts | 70° |
| 2026-05-06 12:32 | 38.89712 | 1.46871 | 4085 ft | 230 kts | 80° |
| 2026-05-06 12:33 | 38.90004 | 1.48937 | 4918 ft | 239 kts | 79° |
| 2026-05-06 12:33 | 38.90336 | 1.51043 | 5836 ft | 243 kts | 78° |
| 2026-05-06 12:33 | 38.90717 | 1.53169 | 6737 ft | 246 kts | 73° |
| 2026-05-06 12:33 | 38.91534 | 1.55118 | 7484 ft | 256 kts | 48° |
| 2026-05-06 12:34 | 38.92875 | 1.56740 | 7985 ft | 273 kts | 41° |
| 2026-05-06 12:34 | 38.94348 | 1.58377 | 8519 ft | 287 kts | 41° |
| 2026-05-06 12:34 | 38.95876 | 1.60092 | 9212 ft | 294 kts | 41° |
| 2026-05-06 12:34 | 38.97425 | 1.61842 | 9972 ft | 298 kts | 41° |
| 2026-05-06 12:35 | 38.98983 | 1.63623 | 10725 ft | 301 kts | 41° |
| 2026-05-06 12:35 | 39.00698 | 1.65173 | 11420 ft | 304 kts | 25° |
| 2026-05-06 12:35 | 39.02720 | 1.65842 | 12047 ft | 307 kts | 6° |
| 2026-05-06 12:35 | 39.04861 | 1.66066 | 12680 ft | 311 kts | 4° |
| 2026-05-06 12:36 | 39.07023 | 1.66272 | 13304 ft | 314 kts | 4° |
| 2026-05-06 12:36 | 39.09197 | 1.66384 | 13890 ft | 317 kts | 355° |
| 2026-05-06 12:36 | 39.11317 | 1.65723 | 14306 ft | 325 kts | 338° |
| 2026-05-06 12:36 | 39.13432 | 1.64533 | 14583 ft | 338 kts | 335° |
| 2026-05-06 12:37 | 39.15611 | 1.63249 | 14841 ft | 351 kts | 335° |
| 2026-05-06 12:37 | 39.17871 | 1.61930 | 15110 ft | 361 kts | 335° |
| 2026-05-06 12:37 | 39.20166 | 1.60612 | 15377 ft | 370 kts | 336° |
| 2026-05-06 12:37 | 39.22537 | 1.59276 | 15786 ft | 374 kts | 336° |
| 2026-05-06 12:38 | 39.24934 | 1.57930 | 16235 ft | 376 kts | 336° |
| 2026-05-06 12:38 | 39.27346 | 1.56574 | 16645 ft | 379 kts | 336° |
| 2026-05-06 12:38 | 39.29773 | 1.55209 | 17029 ft | 382 kts | 336° |
| 2026-05-06 12:38 | 39.32226 | 1.53851 | 17404 ft | 385 kts | 336° |
| 2026-05-06 12:39 | 39.34697 | 1.52489 | 17760 ft | 387 kts | 336° |
| 2026-05-06 12:39 | 39.37180 | 1.51102 | 18097 ft | 390 kts | 336° |
| 2026-05-06 12:39 | 39.39645 | 1.49722 | 18414 ft | 393 kts | 336° |
| 2026-05-06 12:39 | 39.42153 | 1.48318 | 18729 ft | 395 kts | 336° |
| 2026-05-06 12:40 | 39.44680 | 1.46894 | 19041 ft | 397 kts | 336° |
| 2026-05-06 12:40 | 39.47230 | 1.45449 | 19649 ft | 399 kts | 333° |
| 2026-05-06 12:40 | 39.49742 | 1.44026 | 20592 ft | 392 kts | 333° |
| 2026-05-06 12:40 | 39.52242 | 1.42612 | 21303 ft | 393 kts | 333° |
| 2026-05-06 12:41 | 39.54764 | 1.41187 | 21858 ft | 397 kts | 333° |
| 2026-05-06 12:41 | 39.57309 | 1.39746 | 22402 ft | 401 kts | 333° |
| 2026-05-06 12:41 | 39.59922 | 1.38413 | 22935 ft | 408 kts | 339° |
| 2026-05-06 12:41 | 39.62701 | 1.37673 | 23458 ft | 416 kts | 349° |
| 2026-05-06 12:42 | 39.65585 | 1.37271 | 23978 ft | 421 kts | 351° |
| 2026-05-06 12:42 | 39.68511 | 1.36917 | 24470 ft | 424 kts | 351° |
| 2026-05-06 12:42 | 39.71464 | 1.36553 | 24950 ft | 428 kts | 351° |
| 2026-05-06 12:42 | 39.74436 | 1.36173 | 25411 ft | 431 kts | 351° |
| 2026-05-06 12:43 | 39.77427 | 1.35776 | 25847 ft | 434 kts | 350° |
| 2026-05-06 12:43 | 39.80439 | 1.35376 | 26387 ft | 435 kts | 351° |
| 2026-05-06 12:43 | 39.83447 | 1.34977 | 26912 ft | 435 kts | 351° |
| 2026-05-06 12:43 | 39.86429 | 1.34581 | 27345 ft | 437 kts | 351° |
| 2026-05-06 12:44 | 39.89460 | 1.34171 | 27743 ft | 439 kts | 351° |
| 2026-05-06 12:44 | 39.92510 | 1.33763 | 28123 ft | 443 kts | 351° |
| 2026-05-06 12:44 | 39.95587 | 1.33353 | 28533 ft | 445 kts | 351° |
| 2026-05-06 12:44 | 39.98674 | 1.32943 | 28918 ft | 447 kts | 351° |
| 2026-05-06 12:45 | 40.01783 | 1.32528 | 29275 ft | 450 kts | 350° |
| 2026-05-06 12:45 | 40.04899 | 1.32110 | 29614 ft | 452 kts | 351° |
| 2026-05-06 12:45 | 40.11191 | 1.31269 | 30285 ft | 457 kts | 350° |
| 2026-05-06 12:46 | 40.14357 | 1.30841 | 30601 ft | 459 kts | 350° |
| 2026-05-06 12:46 | 40.17505 | 1.30419 | 30916 ft | 461 kts | 350° |
| 2026-05-06 12:46 | 40.20698 | 1.29993 | 31215 ft | 463 kts | 350° |
| 2026-05-06 12:46 | 40.23914 | 1.29563 | 31507 ft | 465 kts | 350° |
| 2026-05-06 12:47 | 40.27136 | 1.29130 | 31838 ft | 466 kts | 350° |
| 2026-05-06 12:47 | 40.30357 | 1.28696 | 32228 ft | 465 kts | 350° |
| 2026-05-06 12:47 | 40.33569 | 1.28262 | 32608 ft | 463 kts | 350° |
| 2026-05-06 12:47 | 40.36775 | 1.27829 | 32945 ft | 463 kts | 350° |
| 2026-05-06 12:48 | 40.39972 | 1.27399 | 33306 ft | 462 kts | 350° |
| 2026-05-06 12:48 | 40.43130 | 1.26971 | 33630 ft | 461 kts | 350° |
| 2026-05-06 12:48 | 40.46318 | 1.26540 | 33934 ft | 461 kts | 350° |
| 2026-05-06 12:48 | 40.49504 | 1.26110 | 34236 ft | 460 kts | 350° |
| 2026-05-06 12:49 | 40.52688 | 1.25671 | 34532 ft | 460 kts | 350° |
| 2026-05-06 12:49 | 40.55873 | 1.25236 | 34788 ft | 460 kts | 350° |
| 2026-05-06 12:49 | 40.59057 | 1.24805 | 35032 ft | 460 kts | 350° |
| 2026-05-06 12:49 | 40.62234 | 1.24373 | 35286 ft | 460 kts | 350° |
| 2026-05-06 12:50 | 40.65414 | 1.23938 | 35531 ft | 459 kts | 350° |
| 2026-05-06 12:50 | 40.68599 | 1.23547 | 35728 ft | 461 kts | 353° |
| 2026-05-06 12:50 | 40.71778 | 1.23681 | 35914 ft | 466 kts | 4° |
| 2026-05-06 12:50 | 40.74964 | 1.24564 | 36108 ft | 469 kts | 12° |
| 2026-05-06 12:51 | 40.78121 | 1.25708 | 36281 ft | 470 kts | 13° |
| 2026-05-06 12:51 | 40.81254 | 1.26873 | 36463 ft | 470 kts | 13° |
| 2026-05-06 12:51 | 40.84410 | 1.28034 | 36650 ft | 470 kts | 12° |
| 2026-05-06 12:51 | 40.87560 | 1.29170 | 36875 ft | 468 kts | 12° |
| 2026-05-06 12:52 | 40.90697 | 1.30293 | 37115 ft | 466 kts | 12° |
| 2026-05-06 12:52 | 40.93821 | 1.31416 | 37363 ft | 464 kts | 12° |
| 2026-05-06 12:52 | 40.96928 | 1.32539 | 37572 ft | 462 kts | 12° |
| 2026-05-06 12:52 | 40.99990 | 1.33641 | 37756 ft | 462 kts | 12° |
| 2026-05-06 12:53 | 41.03082 | 1.34755 | 37897 ft | 461 kts | 12° |
| 2026-05-06 12:53 | 41.09217 | 1.36972 | 37976 ft | 463 kts | 13° |
| 2026-05-06 12:54 | 41.15444 | 1.39215 | 37957 ft | 463 kts | 13° |
| 2026-05-06 12:54 | 41.21647 | 1.41468 | 37947 ft | 463 kts | 13° |
| 2026-05-06 12:55 | 41.27825 | 1.43724 | 37948 ft | 463 kts | 13° |
| 2026-05-06 12:55 | 41.34040 | 1.45986 | 37957 ft | 463 kts | 13° |
| 2026-05-06 12:56 | 41.40252 | 1.48248 | 37944 ft | 463 kts | 13° |
| 2026-05-06 12:56 | 41.45426 | 1.50142 | 37943 ft | 464 kts | 13° |
| 2026-05-06 12:57 | 41.51644 | 1.52427 | 37954 ft | 463 kts | 13° |
| 2026-05-06 12:57 | 41.58874 | 1.55081 | 37949 ft | 463 kts | 13° |
| 2026-05-06 12:58 | 41.64042 | 1.56976 | 37939 ft | 464 kts | 13° |
| 2026-05-06 12:58 | 41.70257 | 1.59262 | 37936 ft | 464 kts | 13° |
| 2026-05-06 12:59 | 41.76519 | 1.61319 | 37934 ft | 461 kts | 4° |
| 2026-05-06 12:59 | 41.80730 | 1.61338 | 37941 ft | 456 kts | 351° |
| 2026-05-06 12:59 | 41.82852 | 1.61020 | 37945 ft | 455 kts | 349° |
| 2026-05-06 13:00 | 41.89138 | 1.59967 | 37941 ft | 455 kts | 349° |
| 2026-05-06 13:00 | 41.95390 | 1.58958 | 37946 ft | 455 kts | 350° |
| 2026-05-06 13:01 | 42.01684 | 1.57960 | 37935 ft | 455 kts | 350° |
| 2026-05-06 13:01 | 42.07969 | 1.56963 | 37930 ft | 455 kts | 350° |
| 2026-05-06 13:02 | 42.14266 | 1.55958 | 37926 ft | 455 kts | 350° |
| 2026-05-06 13:02 | 42.20513 | 1.54961 | 37923 ft | 455 kts | 350° |
| 2026-05-06 13:03 | 42.26803 | 1.53954 | 37937 ft | 455 kts | 350° |
| 2026-05-06 13:03 | 42.33095 | 1.52946 | 37942 ft | 455 kts | 350° |
| 2026-05-06 13:04 | 42.39393 | 1.51943 | 37941 ft | 456 kts | 350° |
| 2026-05-06 13:04 | 42.45634 | 1.50940 | 37929 ft | 455 kts | 350° |
| 2026-05-06 13:05 | 42.51912 | 1.49931 | 37928 ft | 454 kts | 350° |
| 2026-05-06 13:05 | 42.58190 | 1.48918 | 37933 ft | 454 kts | 350° |
| 2026-05-06 13:06 | 42.64466 | 1.47906 | 37922 ft | 454 kts | 350° |
| 2026-05-06 13:06 | 42.70705 | 1.46903 | 37934 ft | 455 kts | 350° |
| 2026-05-06 13:07 | 42.76992 | 1.45887 | 37923 ft | 454 kts | 350° |
| 2026-05-06 13:07 | 42.83266 | 1.44880 | 37930 ft | 454 kts | 351° |
| 2026-05-06 13:08 | 42.89543 | 1.43862 | 37933 ft | 454 kts | 350° |
| 2026-05-06 13:08 | 42.95811 | 1.42844 | 37927 ft | 454 kts | 350° |
| 2026-05-06 13:09 | 43.02048 | 1.41837 | 37933 ft | 454 kts | 351° |
| 2026-05-06 13:09 | 43.08316 | 1.40817 | 37931 ft | 453 kts | 351° |
| 2026-05-06 13:10 | 43.14580 | 1.39794 | 37938 ft | 453 kts | 351° |
| 2026-05-06 13:10 | 43.20841 | 1.38773 | 37946 ft | 453 kts | 351° |
| 2026-05-06 13:11 | 43.27070 | 1.37757 | 37947 ft | 453 kts | 351° |
| 2026-05-06 13:11 | 43.33326 | 1.36730 | 37965 ft | 452 kts | 351° |
| 2026-05-06 13:12 | 43.39583 | 1.35701 | 37962 ft | 453 kts | 351° |
| 2026-05-06 13:12 | 43.45802 | 1.34677 | 37956 ft | 453 kts | 351° |
| 2026-05-06 13:13 | 43.52058 | 1.33643 | 37958 ft | 453 kts | 351° |
| 2026-05-06 13:13 | 43.58319 | 1.32604 | 37963 ft | 453 kts | 351° |
| 2026-05-06 13:14 | 43.64580 | 1.31565 | 37956 ft | 453 kts | 351° |
| 2026-05-06 13:14 | 43.70814 | 1.30286 | 37955 ft | 452 kts | 347° |
| 2026-05-06 13:15 | 43.76997 | 1.28682 | 37961 ft | 452 kts | 347° |
| 2026-05-06 13:15 | 43.83134 | 1.27092 | 37960 ft | 452 kts | 347° |
| 2026-05-06 13:16 | 43.89324 | 1.25492 | 37959 ft | 452 kts | 347° |
| 2026-05-06 13:16 | 43.95511 | 1.23897 | 37953 ft | 452 kts | 347° |
| 2026-05-06 13:17 | 44.01689 | 1.22293 | 37957 ft | 452 kts | 347° |
| 2026-05-06 13:17 | 44.07824 | 1.20699 | 37953 ft | 452 kts | 347° |
| 2026-05-06 13:18 | 44.14003 | 1.19083 | 37957 ft | 452 kts | 347° |
| 2026-05-06 13:18 | 44.20179 | 1.17466 | 37952 ft | 452 kts | 347° |
| 2026-05-06 13:19 | 44.26360 | 1.15849 | 37940 ft | 452 kts | 347° |
| 2026-05-06 13:19 | 44.32486 | 1.14246 | 37937 ft | 451 kts | 347° |
| 2026-05-06 13:20 | 44.38662 | 1.12620 | 37937 ft | 451 kts | 347° |
| 2026-05-06 13:20 | 44.44831 | 1.10986 | 37937 ft | 451 kts | 347° |
| 2026-05-06 13:21 | 44.51004 | 1.09355 | 37940 ft | 451 kts | 347° |
| 2026-05-06 13:21 | 44.57176 | 1.07725 | 37938 ft | 452 kts | 347° |
| 2026-05-06 13:22 | 44.63307 | 1.06104 | 37937 ft | 451 kts | 347° |
| 2026-05-06 13:22 | 44.69476 | 1.04464 | 37939 ft | 452 kts | 347° |
| 2026-05-06 13:23 | 44.75645 | 1.02820 | 37938 ft | 451 kts | 347° |
| 2026-05-06 13:23 | 44.81812 | 1.01171 | 37923 ft | 451 kts | 347° |
| 2026-05-06 13:24 | 44.87948 | 0.99526 | 37920 ft | 451 kts | 347° |
| 2026-05-06 13:24 | 44.94105 | 0.97861 | 37922 ft | 451 kts | 347° |
| 2026-05-06 13:25 | 45.00271 | 0.96216 | 37921 ft | 451 kts | 348° |
| 2026-05-06 13:25 | 45.06444 | 0.94558 | 37912 ft | 451 kts | 347° |
| 2026-05-06 13:26 | 45.12604 | 0.92896 | 37913 ft | 451 kts | 348° |
| 2026-05-06 13:26 | 45.18719 | 0.91242 | 37911 ft | 451 kts | 348° |
| 2026-05-06 13:27 | 45.24880 | 0.89576 | 37910 ft | 451 kts | 347° |
| 2026-05-06 13:27 | 45.31039 | 0.87894 | 37911 ft | 451 kts | 348° |
| 2026-05-06 13:28 | 45.37199 | 0.86213 | 37909 ft | 451 kts | 348° |
| 2026-05-06 13:28 | 45.43325 | 0.84532 | 37907 ft | 451 kts | 347° |
| 2026-05-06 13:29 | 45.49479 | 0.82858 | 37909 ft | 451 kts | 348° |
| 2026-05-06 13:29 | 45.55636 | 0.81174 | 37910 ft | 450 kts | 348° |
| 2026-05-06 13:30 | 45.61788 | 0.79483 | 37909 ft | 450 kts | 348° |
| 2026-05-06 13:30 | 45.67945 | 0.77780 | 37910 ft | 449 kts | 348° |
| 2026-05-06 13:31 | 45.74055 | 0.76081 | 37913 ft | 450 kts | 348° |
| 2026-05-06 13:31 | 45.80197 | 0.74383 | 37910 ft | 450 kts | 348° |
| 2026-05-06 13:32 | 45.86350 | 0.72686 | 37910 ft | 450 kts | 348° |
| 2026-05-06 13:32 | 45.92494 | 0.70987 | 37909 ft | 450 kts | 348° |
| 2026-05-06 13:33 | 45.98600 | 0.69290 | 37910 ft | 450 kts | 348° |
| 2026-05-06 13:33 | 46.04752 | 0.67569 | 37909 ft | 450 kts | 348° |
| 2026-05-06 13:34 | 46.10885 | 0.65857 | 37910 ft | 449 kts | 348° |
| 2026-05-06 13:34 | 46.17016 | 0.64135 | 37920 ft | 449 kts | 348° |
| 2026-05-06 13:35 | 46.23120 | 0.62424 | 37924 ft | 450 kts | 348° |
| 2026-05-06 13:35 | 46.29254 | 0.60699 | 37920 ft | 449 kts | 348° |
| 2026-05-06 13:36 | 46.35398 | 0.58958 | 37921 ft | 449 kts | 348° |
| 2026-05-06 13:36 | 46.41525 | 0.57223 | 37930 ft | 449 kts | 348° |
| 2026-05-06 13:37 | 46.47629 | 0.55494 | 37932 ft | 449 kts | 348° |
| 2026-05-06 13:37 | 46.53769 | 0.53815 | 37930 ft | 450 kts | 352° |
| 2026-05-06 13:38 | 46.59991 | 0.54262 | 37932 ft | 451 kts | 11° |
| 2026-05-06 13:38 | 46.66114 | 0.56333 | 37932 ft | 452 kts | 13° |
| 2026-05-06 13:39 | 46.72236 | 0.58396 | 37930 ft | 451 kts | 12° |
| 2026-05-06 13:39 | 46.78325 | 0.60391 | 37938 ft | 451 kts | 12° |
| 2026-05-06 13:40 | 46.84450 | 0.62414 | 37942 ft | 452 kts | 12° |
| 2026-05-06 13:40 | 46.90573 | 0.64449 | 37936 ft | 451 kts | 12° |
| 2026-05-06 13:41 | 46.96699 | 0.66493 | 37940 ft | 452 kts | 12° |
| 2026-05-06 13:41 | 47.02785 | 0.68526 | 37941 ft | 451 kts | 12° |
| 2026-05-06 13:42 | 47.08997 | 0.69642 | 37941 ft | 451 kts | 3° |
| 2026-05-06 13:42 | 47.15256 | 0.70260 | 37940 ft | 450 kts | 3° |
| 2026-05-06 13:43 | 47.21508 | 0.70894 | 37940 ft | 450 kts | 3° |
| 2026-05-06 13:43 | 47.27754 | 0.71541 | 37941 ft | 450 kts | 3° |
| 2026-05-06 13:44 | 47.33969 | 0.72198 | 37937 ft | 450 kts | 3° |
| 2026-05-06 13:44 | 47.40211 | 0.72847 | 37932 ft | 450 kts | 3° |
| 2026-05-06 13:45 | 47.46459 | 0.73505 | 37931 ft | 450 kts | 4° |
| 2026-05-06 13:45 | 47.52586 | 0.75264 | 37943 ft | 451 kts | 17° |
| 2026-05-06 13:45 | 47.55568 | 0.76732 | 37940 ft | 451 kts | 18° |
| 2026-05-06 13:46 | 47.61470 | 0.79685 | 37949 ft | 451 kts | 18° |
| 2026-05-06 13:46 | 47.67416 | 0.82642 | 37946 ft | 451 kts | 18° |
| 2026-05-06 13:47 | 47.73375 | 0.85607 | 37944 ft | 451 kts | 18° |
| 2026-05-06 13:47 | 47.79329 | 0.88559 | 37940 ft | 451 kts | 18° |
| 2026-05-06 13:48 | 47.85290 | 0.91506 | 37940 ft | 451 kts | 18° |
| 2026-05-06 13:48 | 47.91232 | 0.94501 | 37938 ft | 451 kts | 18° |
| 2026-05-06 13:49 | 47.97137 | 0.97499 | 37934 ft | 451 kts | 18° |
| 2026-05-06 13:49 | 48.03074 | 1.00526 | 37920 ft | 451 kts | 18° |
| 2026-05-06 13:50 | 48.09002 | 1.03539 | 37920 ft | 450 kts | 18° |
| 2026-05-06 13:50 | 48.14931 | 1.06554 | 37919 ft | 450 kts | 18° |
| 2026-05-06 13:51 | 48.20819 | 1.09558 | 37922 ft | 450 kts | 18° |
| 2026-05-06 13:51 | 48.26756 | 1.12581 | 37919 ft | 450 kts | 18° |
| 2026-05-06 13:52 | 48.32683 | 1.15618 | 37922 ft | 450 kts | 18° |
| 2026-05-06 13:52 | 48.38608 | 1.18638 | 37923 ft | 450 kts | 18° |
| 2026-05-06 13:53 | 48.44498 | 1.21662 | 37930 ft | 450 kts | 18° |
| 2026-05-06 13:53 | 48.50433 | 1.24705 | 37924 ft | 450 kts | 18° |
| 2026-05-06 13:54 | 48.56361 | 1.27751 | 37922 ft | 450 kts | 18° |
| 2026-05-06 13:54 | 48.62309 | 1.30742 | 37923 ft | 451 kts | 18° |
| 2026-05-06 13:55 | 48.68218 | 1.33714 | 37924 ft | 450 kts | 18° |
| 2026-05-06 13:55 | 48.74160 | 1.36719 | 37930 ft | 450 kts | 18° |
| 2026-05-06 13:56 | 48.80104 | 1.39734 | 37928 ft | 450 kts | 18° |
| 2026-05-06 13:56 | 48.86054 | 1.42754 | 37927 ft | 450 kts | 18° |
| 2026-05-06 13:57 | 48.91986 | 1.45780 | 37932 ft | 450 kts | 18° |
| 2026-05-06 13:57 | 48.97918 | 1.48633 | 37928 ft | 450 kts | 12° |
| 2026-05-06 13:58 | 49.04083 | 1.50180 | 37936 ft | 449 kts | 8° |
| 2026-05-06 13:58 | 49.10270 | 1.51604 | 37940 ft | 450 kts | 8° |
| 2026-05-06 13:59 | 49.16456 | 1.53045 | 37941 ft | 450 kts | 8° |
| 2026-05-06 13:59 | 49.22582 | 1.54592 | 37939 ft | 450 kts | 13° |
| 2026-05-06 14:00 | 49.25543 | 1.56138 | 37938 ft | 450 kts | 25° |
| 2026-05-06 14:00 | 49.28241 | 1.58535 | 37945 ft | 451 kts | 36° |
| 2026-05-06 14:00 | 49.32882 | 1.65003 | 37942 ft | 450 kts | 44° |
| 2026-05-06 14:01 | 49.37374 | 1.71687 | 37937 ft | 450 kts | 44° |
| 2026-05-06 14:01 | 49.41866 | 1.78292 | 37944 ft | 450 kts | 44° |
| 2026-05-06 14:02 | 49.46387 | 1.84956 | 37941 ft | 451 kts | 44° |
| 2026-05-06 14:02 | 49.50909 | 1.91606 | 37940 ft | 450 kts | 42° |
| 2026-05-06 14:03 | 49.55865 | 1.97493 | 37939 ft | 451 kts | 36° |
| 2026-05-06 14:03 | 49.60888 | 2.03143 | 37935 ft | 450 kts | 36° |
| 2026-05-06 14:04 | 49.65940 | 2.08844 | 37930 ft | 450 kts | 36° |
| 2026-05-06 14:04 | 49.70991 | 2.14588 | 37930 ft | 450 kts | 36° |
| 2026-05-06 14:05 | 49.76033 | 2.20345 | 37930 ft | 450 kts | 36° |
| 2026-05-06 14:05 | 49.81042 | 2.26079 | 37921 ft | 450 kts | 36° |
| 2026-05-06 14:06 | 49.86075 | 2.31828 | 37921 ft | 450 kts | 36° |
| 2026-05-06 14:06 | 49.91109 | 2.37607 | 37916 ft | 450 kts | 36° |
| 2026-05-06 14:07 | 49.96139 | 2.43401 | 37907 ft | 450 kts | 37° |
| 2026-05-06 14:07 | 50.01158 | 2.49200 | 37908 ft | 450 kts | 37° |
| 2026-05-06 14:08 | 50.06146 | 2.54978 | 37910 ft | 450 kts | 37° |
| 2026-05-06 14:08 | 50.11169 | 2.60808 | 37911 ft | 450 kts | 37° |
| 2026-05-06 14:09 | 50.16187 | 2.66655 | 37909 ft | 450 kts | 36° |
| 2026-05-06 14:09 | 50.21201 | 2.72512 | 37910 ft | 451 kts | 37° |
| 2026-05-06 14:10 | 50.26221 | 2.78388 | 37910 ft | 451 kts | 37° |
| 2026-05-06 14:10 | 50.31208 | 2.84248 | 37909 ft | 452 kts | 37° |
| 2026-05-06 14:11 | 50.36226 | 2.90156 | 37909 ft | 451 kts | 37° |
| 2026-05-06 14:11 | 50.41252 | 2.96056 | 37910 ft | 452 kts | 35° |
| 2026-05-06 14:12 | 50.46705 | 3.00956 | 37911 ft | 451 kts | 28° |
| 2026-05-06 14:12 | 50.52198 | 3.05559 | 37909 ft | 451 kts | 28° |
| 2026-05-06 14:13 | 50.57740 | 3.10233 | 37910 ft | 452 kts | 28° |
| 2026-05-06 14:13 | 50.63237 | 3.14919 | 37215 ft | 449 kts | 28° |
| 2026-05-06 14:14 | 50.66017 | 3.17289 | 36152 ft | 460 kts | 28° |
| 2026-05-06 14:14 | 50.68833 | 3.19685 | 35134 ft | 459 kts | 28° |
| 2026-05-06 14:14 | 50.71636 | 3.22066 | 34146 ft | 457 kts | 28° |
| 2026-05-06 14:14 | 50.74401 | 3.24404 | 33406 ft | 455 kts | 28° |
| 2026-05-06 14:15 | 50.77172 | 3.26699 | 32879 ft | 447 kts | 27° |
| 2026-05-06 14:15 | 50.79930 | 3.28958 | 32012 ft | 443 kts | 27° |
| 2026-05-06 14:15 | 50.82643 | 3.31198 | 31113 ft | 438 kts | 28° |
| 2026-05-06 14:15 | 50.85318 | 3.33423 | 30302 ft | 431 kts | 28° |
| 2026-05-06 14:16 | 50.87947 | 3.35618 | 29468 ft | 424 kts | 28° |
| 2026-05-06 14:16 | 50.90539 | 3.37789 | 28598 ft | 419 kts | 28° |
| 2026-05-06 14:16 | 50.93071 | 3.39916 | 27726 ft | 415 kts | 28° |
| 2026-05-06 14:16 | 50.95637 | 3.42075 | 26843 ft | 411 kts | 28° |
| 2026-05-06 14:17 | 50.98116 | 3.44159 | 25983 ft | 406 kts | 28° |
| 2026-05-06 14:17 | 51.00596 | 3.46250 | 25288 ft | 400 kts | 28° |
| 2026-05-06 14:17 | 51.03036 | 3.48308 | 24771 ft | 395 kts | 28° |
| 2026-05-06 14:17 | 51.05453 | 3.50348 | 24253 ft | 391 kts | 28° |
| 2026-05-06 14:18 | 51.07842 | 3.52369 | 23769 ft | 386 kts | 28° |
| 2026-05-06 14:18 | 51.10194 | 3.54361 | 23301 ft | 381 kts | 28° |
| 2026-05-06 14:18 | 51.12515 | 3.56327 | 22842 ft | 376 kts | 28° |
| 2026-05-06 14:18 | 51.14807 | 3.58271 | 22384 ft | 371 kts | 28° |
| 2026-05-06 14:19 | 51.17045 | 3.60173 | 21928 ft | 367 kts | 28° |
| 2026-05-06 14:19 | 51.19288 | 3.62080 | 21460 ft | 364 kts | 28° |
| 2026-05-06 14:19 | 51.21510 | 3.63969 | 20998 ft | 360 kts | 27° |
| 2026-05-06 14:19 | 51.23797 | 3.65488 | 20528 ft | 355 kts | 12° |
| 2026-05-06 14:20 | 51.26229 | 3.65832 | 20107 ft | 349 kts | 359° |
| 2026-05-06 14:20 | 51.28653 | 3.65736 | 19699 ft | 347 kts | 357° |
| 2026-05-06 14:20 | 51.31056 | 3.65609 | 19291 ft | 346 kts | 357° |
| 2026-05-06 14:20 | 51.33463 | 3.65496 | 18878 ft | 345 kts | 358° |
| 2026-05-06 14:21 | 51.35864 | 3.65403 | 18484 ft | 344 kts | 358° |
| 2026-05-06 14:21 | 51.38224 | 3.65323 | 18105 ft | 344 kts | 358° |
| 2026-05-06 14:21 | 51.40617 | 3.65245 | 17725 ft | 344 kts | 358° |
| 2026-05-06 14:21 | 51.43009 | 3.65170 | 17324 ft | 344 kts | 358° |
| 2026-05-06 14:22 | 51.45408 | 3.65095 | 16916 ft | 345 kts | 358° |
| 2026-05-06 14:22 | 51.47805 | 3.65024 | 16524 ft | 345 kts | 358° |
| 2026-05-06 14:22 | 51.50198 | 3.64952 | 16150 ft | 344 kts | 358° |
| 2026-05-06 14:22 | 51.52583 | 3.64880 | 15805 ft | 341 kts | 358° |
| 2026-05-06 14:23 | 51.54952 | 3.64806 | 15450 ft | 340 kts | 358° |
| 2026-05-06 14:23 | 51.57309 | 3.64733 | 15074 ft | 339 kts | 358° |
| 2026-05-06 14:23 | 51.59636 | 3.64660 | 14682 ft | 337 kts | 358° |
| 2026-05-06 14:23 | 51.61957 | 3.64587 | 14306 ft | 331 kts | 358° |
| 2026-05-06 14:24 | 51.64186 | 3.64520 | 13937 ft | 326 kts | 358° |
| 2026-05-06 14:24 | 51.66407 | 3.64453 | 13578 ft | 320 kts | 358° |
| 2026-05-06 14:24 | 51.68623 | 3.64387 | 13205 ft | 316 kts | 359° |
| 2026-05-06 14:24 | 51.70784 | 3.64745 | 12835 ft | 311 kts | 16° |
| 2026-05-06 14:25 | 51.72678 | 3.66343 | 12491 ft | 308 kts | 40° |
| 2026-05-06 14:25 | 51.74047 | 3.68980 | 12198 ft | 306 kts | 56° |
| 2026-05-06 14:25 | 51.75170 | 3.71890 | 11871 ft | 306 kts | 58° |
| 2026-05-06 14:25 | 51.76267 | 3.74779 | 11532 ft | 305 kts | 58° |
| 2026-05-06 14:26 | 51.77359 | 3.77616 | 11196 ft | 305 kts | 57° |
| 2026-05-06 14:26 | 51.78489 | 3.80523 | 10867 ft | 305 kts | 57° |
| 2026-05-06 14:26 | 51.79621 | 3.83421 | 10522 ft | 305 kts | 57° |
| 2026-05-06 14:26 | 51.80720 | 3.86229 | 10295 ft | 294 kts | 57° |
| 2026-05-06 14:27 | 51.81796 | 3.88985 | 10109 ft | 286 kts | 57° |
| 2026-05-06 14:27 | 51.82851 | 3.91675 | 9855 ft | 283 kts | 57° |
| 2026-05-06 14:27 | 51.83903 | 3.94360 | 9537 ft | 283 kts | 57° |
| 2026-05-06 14:27 | 51.84954 | 3.97041 | 9197 ft | 284 kts | 57° |
| 2026-05-06 14:28 | 51.85998 | 3.99711 | 8867 ft | 284 kts | 57° |
| 2026-05-06 14:28 | 51.87042 | 4.02389 | 8534 ft | 280 kts | 57° |
| 2026-05-06 14:28 | 51.88067 | 4.05020 | 8222 ft | 276 kts | 57° |
| 2026-05-06 14:28 | 51.89101 | 4.07657 | 7918 ft | 274 kts | 57° |
| 2026-05-06 14:29 | 51.90085 | 4.10189 | 7625 ft | 274 kts | 57° |
| 2026-05-06 14:29 | 51.91123 | 4.12770 | 7306 ft | 274 kts | 52° |
| 2026-05-06 14:29 | 51.92468 | 4.14933 | 6983 ft | 272 kts | 39° |
| 2026-05-06 14:29 | 51.93953 | 4.16875 | 6671 ft | 273 kts | 38° |
| 2026-05-06 14:30 | 51.95423 | 4.18779 | 6335 ft | 271 kts | 38° |
| 2026-05-06 14:30 | 51.96883 | 4.20685 | 5994 ft | 268 kts | 38° |
| 2026-05-06 14:30 | 51.98321 | 4.22572 | 5663 ft | 264 kts | 39° |
| 2026-05-06 14:30 | 51.99724 | 4.24420 | 5351 ft | 263 kts | 39° |
| 2026-05-06 14:31 | 52.01159 | 4.26312 | 5038 ft | 261 kts | 38° |
| 2026-05-06 14:31 | 52.02527 | 4.28124 | 4846 ft | 255 kts | 39° |
| 2026-05-06 14:31 | 52.03858 | 4.29888 | 4707 ft | 243 kts | 39° |
| 2026-05-06 14:31 | 52.05123 | 4.31566 | 4593 ft | 231 kts | 39° |
| 2026-05-06 14:32 | 52.06342 | 4.33179 | 4459 ft | 221 kts | 39° |
| 2026-05-06 14:32 | 52.07539 | 4.34715 | 4202 ft | 218 kts | 32° |
| 2026-05-06 14:32 | 52.08880 | 4.35818 | 3892 ft | 216 kts | 24° |
| 2026-05-06 14:32 | 52.10268 | 4.36755 | 3558 ft | 216 kts | 22° |
| 2026-05-06 14:33 | 52.11642 | 4.37639 | 3257 ft | 215 kts | 22° |
| 2026-05-06 14:33 | 52.13024 | 4.38539 | 2933 ft | 215 kts | 22° |
| 2026-05-06 14:33 | 52.14358 | 4.39528 | 2652 ft | 213 kts | 29° |
| 2026-05-06 14:33 | 52.15564 | 4.40875 | 2339 ft | 212 kts | 40° |
| 2026-05-06 14:34 | 52.16612 | 4.42560 | 2056 ft | 212 kts | 48° |
| 2026-05-06 14:34 | 52.17532 | 4.44465 | 1975 ft | 216 kts | 55° |
| 2026-05-06 14:34 | 52.18394 | 4.46510 | 1971 ft | 219 kts | 58° |
| 2026-05-06 14:34 | 52.19201 | 4.48567 | 1989 ft | 216 kts | 57° |
| 2026-05-06 14:35 | 52.20002 | 4.50636 | 1999 ft | 213 kts | 57° |
| 2026-05-06 14:35 | 52.20781 | 4.52650 | 2002 ft | 212 kts | 57° |
| 2026-05-06 14:35 | 52.21568 | 4.54686 | 2016 ft | 212 kts | 57° |
| 2026-05-06 14:35 | 52.22354 | 4.56719 | 2024 ft | 209 kts | 57° |
| 2026-05-06 14:36 | 52.23060 | 4.58550 | 2100 ft | 168 kts | 57° |
| 2026-05-06 14:36 | 52.23614 | 4.59987 | 1936 ft | 136 kts | 57° |
| 2026-05-06 14:36 | 52.24104 | 4.61262 | 1746 ft | 128 kts | 57° |
| 2026-05-06 14:36 | 52.24583 | 4.62490 | 1528 ft | 127 kts | 57° |
| 2026-05-06 14:37 | 52.25055 | 4.63700 | 1308 ft | 127 kts | 57° |
| 2026-05-06 14:37 | 52.25531 | 4.64921 | 1097 ft | 128 kts | 57° |
| 2026-05-06 14:37 | 52.26011 | 4.66141 | 992 ft | 128 kts | 57° |
| 2026-05-06 14:37 | 52.26483 | 4.67366 | 845 ft | 127 kts | 57° |
| 2026-05-06 14:38 | 52.26947 | 4.68606 | 697 ft | 128 kts | 59° |
| 2026-05-06 14:38 | 52.27411 | 4.69854 | 590 ft | 129 kts | 58° |
| 2026-05-06 14:38 | 52.27887 | 4.71080 | 420 ft | 128 kts | 57° |
| 2026-05-06 14:38 | 52.28364 | 4.72297 | 239 ft | 129 kts | 57° |
| 2026-05-06 14:39 | 52.28837 | 4.73534 | 93 ft | 128 kts | 57° |
| 2026-05-06 14:39 | 52.29297 | 4.74724 | 9 ft | 119 kts | 57° |
| 2026-05-06 14:39 | 52.29784 | 4.75995 | 213 ft | 154 kts | 58° |
| 2026-05-06 14:39 | 52.30409 | 4.77622 | 749 ft | 182 kts | 59° |
| 2026-05-06 14:40 | 52.31122 | 4.79504 | 1555 ft | 210 kts | 58° |
| 2026-05-06 14:40 | 52.32099 | 4.81389 | 1889 ft | 216 kts | 36° |
| 2026-05-06 14:40 | 52.33508 | 4.82086 | 2005 ft | 215 kts | 4° |
| 2026-05-06 14:40 | 52.34955 | 4.81525 | 2038 ft | 218 kts | 334° |
| 2026-05-06 14:41 | 52.36062 | 4.79869 | 2088 ft | 219 kts | 303° |
| 2026-05-06 14:41 | 52.36515 | 4.77517 | 2079 ft | 230 kts | 272° |
| 2026-05-06 14:41 | 52.36292 | 4.74877 | 2080 ft | 232 kts | 258° |
| 2026-05-06 14:41 | 52.35927 | 4.72369 | 2056 ft | 224 kts | 257° |
| 2026-05-06 14:42 | 52.35577 | 4.69888 | 2048 ft | 224 kts | 258° |
| 2026-05-06 14:42 | 52.35247 | 4.67408 | 2034 ft | 224 kts | 259° |
| 2026-05-06 14:42 | 52.34921 | 4.64913 | 2024 ft | 224 kts | 257° |
| 2026-05-06 14:42 | 52.34356 | 4.62549 | 2037 ft | 225 kts | 240° |
| 2026-05-06 14:43 | 52.33522 | 4.60393 | 2036 ft | 225 kts | 237° |
| 2026-05-06 14:43 | 52.32675 | 4.58251 | 2032 ft | 224 kts | 237° |
| 2026-05-06 14:43 | 52.31834 | 4.56102 | 2032 ft | 225 kts | 238° |
| 2026-05-06 14:43 | 52.30993 | 4.53942 | 2024 ft | 225 kts | 238° |
| 2026-05-06 14:44 | 52.30166 | 4.51814 | 2025 ft | 225 kts | 238° |
| 2026-05-06 14:44 | 52.29333 | 4.49677 | 2028 ft | 224 kts | 238° |
| 2026-05-06 14:44 | 52.28492 | 4.47520 | 2038 ft | 224 kts | 238° |
| 2026-05-06 14:45 | 52.26255 | 4.44141 | 2015 ft | 224 kts | 197° |
| 2026-05-06 14:45 | 52.24724 | 4.43856 | 2016 ft | 222 kts | 172° |
| 2026-05-06 14:45 | 52.23269 | 4.44633 | 2015 ft | 220 kts | 149° |
| 2026-05-06 14:45 | 52.22045 | 4.46089 | 2031 ft | 218 kts | 132° |
| 2026-05-06 14:46 | 52.21245 | 4.48153 | 2028 ft | 216 kts | 109° |
| 2026-05-06 14:46 | 52.20834 | 4.50465 | 2015 ft | 214 kts | 99° |
| 2026-05-06 14:46 | 52.20871 | 4.52848 | 2010 ft | 212 kts | 71° |
| 2026-05-06 14:46 | 52.21505 | 4.55010 | 2034 ft | 212 kts | 57° |
| 2026-05-06 14:47 | 52.22335 | 4.56988 | 2027 ft | 212 kts | 54° |
| 2026-05-06 14:47 | 52.23176 | 4.58948 | 2053 ft | 211 kts | 55° |
| 2026-05-06 14:47 | 52.23958 | 4.60900 | 1940 ft | 183 kts | 57° |
| 2026-05-06 14:47 | 52.24571 | 4.62474 | 1664 ft | 151 kts | 57° |
| 2026-05-06 14:48 | 52.25090 | 4.63813 | 1411 ft | 131 kts | 56° |
| 2026-05-06 14:48 | 52.25564 | 4.65050 | 1220 ft | 128 kts | 58° |
| 2026-05-06 14:48 | 52.26041 | 4.66282 | 1059 ft | 128 kts | 57° |
| 2026-05-06 14:48 | 52.26510 | 4.67504 | 896 ft | 128 kts | 57° |
| 2026-05-06 14:49 | 52.26990 | 4.68753 | 727 ft | 127 kts | 57° |
| 2026-05-06 14:49 | 52.27460 | 4.69953 | 570 ft | 127 kts | 57° |
| 2026-05-06 14:49 | 52.27924 | 4.71183 | 402 ft | 127 kts | 58° |
| 2026-05-06 14:49 | 52.28407 | 4.72391 | 260 ft | 128 kts | 57° |
| 2026-05-06 14:50 | 52.28874 | 4.73619 | 88 ft | 128 kts | 58° |
| 2026-05-06 14:50 | 52.29334 | 4.74825 | 6 ft | 119 kts | 59° |
| 2026-05-06 14:50 | 52.29671 | 4.75709 | 3 ft | 61 kts | 59° |
| 2026-05-06 14:50 | 52.29844 | 4.76162 | 2 ft | 51 kts | 58° |
| 2026-05-06 14:51 | 52.30025 | 4.76538 | 3 ft | 29 kts | 22° |
| 2026-05-06 14:51 | 52.30189 | 4.76681 | 4 ft | 24 kts | 27° |
| 2026-05-06 14:51 | 52.30301 | 4.76804 | 4 ft | 10 kts | 57° |
| 2026-05-06 14:51 | 52.30347 | 4.76909 | 4 ft | 16 kts | 56° |
| 2026-05-06 14:52 | 52.30441 | 4.77155 | 4 ft | 32 kts | 58° |
| 2026-05-06 14:52 | 52.30549 | 4.77439 | 4 ft | 24 kts | 58° |
| 2026-05-06 14:52 | 52.30657 | 4.77588 | 4 ft | 22 kts | 5° |
| 2026-05-06 14:52 | 52.30781 | 4.77595 | 4 ft | 11 kts | 356° |
| 2026-05-06 14:53 | 52.30833 | 4.77502 | 4 ft | 13 kts | 273° |
| 2026-05-06 14:53 | 52.30836 | 4.77386 | 4 ft | 8 kts | 289° |
| 2026-05-06 14:53 | 52.30874 | 4.77362 | 4 ft | 6 kts | 4° |
| 2026-05-06 14:53 | 52.30894 | 4.77365 | 4 ft | 1 kts | 5° |
| 2026-05-06 14:54 | 52.30895 | 4.77365 | 4 ft | 0 kts | 4° |